Terminal Aerodrome Forecast
Issued by NWS

Home | Current Version | Previous Version | Graphics & Text | Print | Product List | Glossary On
Versions: 1 2 3 4 5 6 7 8 9 10 11 12 13 14 15 16 17
000
FTUS43 KMPX 291500 AAB
TAFRNH
TAF AMD
KRNH 291510Z 2915/3012 30009KT P6SM OVC022
     FM291800 28007KT P6SM BKN025
     FM292300 23006KT P6SM SCT040
     FM300000 19004KT P6SM SCT110
     FM300900 16004KT P6SM VCSH BKN090=

USA.gov is the U.S. government's official web portal to all federal, state and local government web resources and services.